Time;durP1;ratioP1;P1;durP2;ratioP2;P2;SDS_P1;SDS_P2;PMS_P1;PMS_P2;Temp;Humidity;BMP_temperature;BMP_pressure;BME280_temperature;BME280_humidity;BME280_pressure;Samples;Min_cycle;Max_cycle;Signal;HPM_P1;HPM_P2
2020/12/12 00:01:19;;;;;;;7.10;6.10;;;7.80;74.70;;;;;;5103119;28;20535;-75
2020/12/12 00:03:45;;;;;;;7.60;6.43;;;7.80;74.60;;;;;;5094321;28;20447;-76
2020/12/12 00:06:12;;;;;;;5.67;5.17;;;7.80;74.60;;;;;;5092121;28;20525;-75
2020/12/12 00:08:39;;;;;;;6.60;6.00;;;7.80;75.40;;;;;;5106305;28;20946;-75
2020/12/12 00:11:06;;;;;;;7.00;6.30;;;7.80;74.60;;;;;;5107448;28;20451;-75
2020/12/12 00:13:33;;;;;;;6.33;5.63;;;7.80;74.60;;;;;;5099863;28;20834;-76
2020/12/12 00:15:59;;;;;;;5.80;5.20;;;7.80;74.80;;;;;;5108842;28;20450;-75
2020/12/12 00:18:26;;;;;;;7.30;6.60;;;7.90;75.00;;;;;;5092292;28;20452;-75
2020/12/12 00:20:52;;;;;;;6.63;5.33;;;7.90;74.90;;;;;;5111221;28;20961;-75
2020/12/12 00:23:19;;;;;;;6.40;5.80;;;7.90;74.90;;;;;;5108666;28;20487;-75
2020/12/12 00:25:47;;;;;;;7.37;6.63;;;7.90;74.90;;;;;;5097237;28;20976;-75
2020/12/12 00:28:15;;;;;;;6.10;5.20;;;7.90;74.80;;;;;;5093194;28;20451;-75
2020/12/12 00:30:41;;;;;;;7.20;5.70;;;7.90;74.70;;;;;;5094389;28;20524;-75
2020/12/12 00:33:08;;;;;;;6.83;6.13;;;8.00;74.70;;;;;;5095655;28;20931;-76
2020/12/12 00:35:35;;;;;;;5.90;5.30;;;8.00;74.70;;;;;;5112545;28;20448;-75
2020/12/12 00:38:01;;;;;;;7.73;6.20;;;8.00;74.70;;;;;;5115998;28;20541;-76
2020/12/12 00:40:28;;;;;;;7.20;6.17;;;8.00;74.70;;;;;;5104954;28;20457;-76
2020/12/12 00:42:54;;;;;;;5.40;4.90;;;8.00;74.60;;;;;;5115882;28;20491;-75
2020/12/12 00:45:22;;;;;;;6.40;5.80;;;8.10;74.60;;;;;;5099045;28;20492;-75
2020/12/12 00:47:48;;;;;;;6.07;5.47;;;8.10;74.40;;;;;;5098505;28;20559;-75
2020/12/12 00:50:15;;;;;;;6.30;5.23;;;8.10;74.20;;;;;;5100352;28;21031;-75
2020/12/12 00:52:41;;;;;;;7.13;6.27;;;8.10;74.10;;;;;;5102368;28;20446;-75
2020/12/12 00:55:08;;;;;;;6.47;5.80;;;8.10;74.20;;;;;;5113860;28;20989;-75
2020/12/12 00:57:34;;;;;;;7.63;6.63;;;8.10;74.20;;;;;;5113649;28;20458;-75
2020/12/12 01:00:01;;;;;;;5.93;5.33;;;8.10;74.30;;;;;;5114359;28;20490;-75
2020/12/12 01:02:28;;;;;;;6.40;5.73;;;8.10;74.40;;;;;;5103805;28;20869;-75
2020/12/12 01:04:55;;;;;;;5.43;4.83;;;8.10;74.40;;;;;;5103128;28;20488;-74
2020/12/12 01:07:22;;;;;;;6.40;5.83;;;8.10;74.30;;;;;;5099187;28;20512;-75
2020/12/12 01:09:49;;;;;;;6.50;5.90;;;8.10;74.40;;;;;;5094927;28;20456;-74
2020/12/12 01:12:17;;;;;;;5.03;4.33;;;8.20;74.40;;;;;;5096375;28;20460;-74
2020/12/12 01:14:43;;;;;;;5.67;5.17;;;8.20;74.30;;;;;;5095026;28;20460;-74
2020/12/12 01:17:10;;;;;;;7.37;6.40;;;8.20;74.10;;;;;;5105023;28;20966;-74
2020/12/12 01:19:38;;;;;;;6.00;5.50;;;8.30;74.10;;;;;;5106521;28;20450;-74
2020/12/12 01:22:04;;;;;;;7.70;6.17;;;8.30;74.10;;;;;;5095951;28;20452;-73
2020/12/12 01:24:31;;;;;;;5.60;5.07;;;8.30;74.00;;;;;;5094472;28;20617;-74
2020/12/12 01:26:57;;;;;;;5.83;5.13;;;8.30;73.80;;;;;;5108457;28;20526;-75
2020/12/12 01:29:24;;;;;;;5.80;5.30;;;8.30;73.70;;;;;;5111049;28;20861;-74
2020/12/12 01:31:50;;;;;;;6.10;5.60;;;8.30;73.70;;;;;;5109894;28;20457;-74
2020/12/12 01:34:17;;;;;;;5.90;5.30;;;8.20;73.70;;;;;;5095853;28;20456;-74
2020/12/12 01:36:47;;;;;;;6.23;5.20;;;8.20;73.60;;;;;;5114635;28;20451;-75
2020/12/12 01:39:14;;;;;;;6.10;5.27;;;8.10;73.80;;;;;;5111447;28;20792;-74
2020/12/12 01:41:40;;;;;;;6.00;5.40;;;8.10;74.00;;;;;;5114620;28;20508;-74
2020/12/12 01:44:07;;;;;;;6.23;5.73;;;8.10;74.00;;;;;;5110169;28;20512;-75
2020/12/12 01:46:33;;;;;;;6.00;5.40;;;8.10;73.90;;;;;;5095292;28;20876;-75
2020/12/12 01:49:00;;;;;;;5.87;5.00;;;8.10;74.00;;;;;;5096761;28;20449;-75
2020/12/12 01:51:27;;;;;;;7.50;4.57;;;8.10;74.00;;;;;;5095183;28;20459;-74
2020/12/12 01:53:57;;;;;;;6.07;5.47;;;8.10;74.00;;;;;;5112745;28;20985;-74
2020/12/12 01:56:24;;;;;;;6.97;5.40;;;8.10;74.10;;;;;;5107021;28;20454;-74
2020/12/12 01:58:52;;;;;;;5.37;4.87;;;8.10;74.10;;;;;;5095273;28;20975;-75
2020/12/12 02:01:22;;;;;;;5.63;5.03;;;8.10;74.30;;;;;;5105228;28;20478;-74
2020/12/12 02:03:50;;;;;;;5.07;4.50;;;8.10;74.20;;;;;;5098511;28;20534;-75
2020/12/12 02:06:19;;;;;;;6.07;5.57;;;8.10;74.20;;;;;;5106462;28;20574;-75
2020/12/12 02:08:46;;;;;;;4.97;4.53;;;8.10;74.30;;;;;;5093807;28;20445;-75
2020/12/12 02:11:13;;;;;;;6.43;4.90;;;8.10;74.30;;;;;;5107420;28;20443;-75
2020/12/12 02:13:46;;;;;;;5.97;5.37;;;8.10;75.00;;;;;;5114069;28;20459;-75
2020/12/12 02:16:13;;;;;;;4.60;4.20;;;8.10;74.40;;;;;;5098302;28;20509;-74
2020/12/12 02:18:40;;;;;;;5.50;4.90;;;8.10;74.40;;;;;;5105137;28;20442;-74
2020/12/12 02:21:07;;;;;;;6.40;5.50;;;8.20;74.50;;;;;;5102986;28;20909;-74
2020/12/12 02:23:35;;;;;;;5.97;5.47;;;8.20;74.50;;;;;;5095403;28;20522;-74
2020/12/12 02:26:02;;;;;;;5.23;4.73;;;8.20;74.30;;;;;;5111682;28;20483;-74
2020/12/12 02:28:33;;;;;;;5.87;5.10;;;8.20;74.30;;;;;;5097985;28;20504;-74
2020/12/12 02:30:59;;;;;;;5.63;5.13;;;8.20;74.30;;;;;;5095379;28;20458;-74
2020/12/12 02:33:26;;;;;;;6.73;5.43;;;8.20;74.30;;;;;;5109436;28;20501;-74
2020/12/12 02:35:52;;;;;;;4.93;4.53;;;8.10;74.30;;;;;;5102751;28;20995;-74
2020/12/12 02:38:19;;;;;;;6.23;5.53;;;8.10;74.50;;;;;;5094416;28;20969;-74
2020/12/12 02:40:46;;;;;;;6.60;5.40;;;8.00;74.50;;;;;;5096778;28;20467;-74
2020/12/12 02:43:13;;;;;;;7.30;6.50;;;8.00;74.60;;;;;;5108913;28;20444;-73
2020/12/12 02:45:40;;;;;;;6.20;4.63;;;8.00;74.70;;;;;;5101593;28;21022;-74
2020/12/12 02:48:07;;;;;;;6.30;5.13;;;8.00;74.90;;;;;;5097690;28;20856;-74
2020/12/12 02:50:34;;;;;;;5.73;4.83;;;8.00;74.60;;;;;;5103952;28;20444;-74
2020/12/12 02:53:00;;;;;;;6.47;5.33;;;8.00;74.70;;;;;;5092633;28;20455;-74
2020/12/12 02:55:27;;;;;;;5.37;4.90;;;8.00;74.70;;;;;;5103533;28;20450;-73
2020/12/12 02:57:54;;;;;;;6.20;5.27;;;8.00;74.60;;;;;;5113234;28;20992;-74
2020/12/12 03:00:23;;;;;;;5.50;4.97;;;8.10;74.70;;;;;;5108242;28;20517;-73
2020/12/12 03:02:49;;;;;;;6.40;5.80;;;8.10;74.70;;;;;;5091291;28;20450;-74
2020/12/12 03:05:17;;;;;;;5.80;5.30;;;8.10;74.70;;;;;;5110079;28;20486;-74
2020/12/12 03:07:44;;;;;;;5.90;4.77;;;8.10;74.50;;;;;;5111415;28;20444;-73
2020/12/12 03:10:10;;;;;;;6.53;5.27;;;8.10;74.50;;;;;;5101625;28;20509;-74
2020/12/12 03:12:38;;;;;;;5.50;4.83;;;8.10;74.50;;;;;;5113191;28;20448;-74
2020/12/12 03:15:07;;;;;;;4.90;4.40;;;8.10;74.40;;;;;;5112558;28;20456;-74
2020/12/12 03:17:33;;;;;;;5.17;4.73;;;8.10;74.30;;;;;;5112526;28;20509;-74
2020/12/12 03:20:00;;;;;;;5.70;5.10;;;8.10;74.10;;;;;;5100195;28;20447;-74
2020/12/12 03:22:26;;;;;;;5.10;4.60;;;8.10;74.00;;;;;;5096052;28;20537;-75
2020/12/12 03:24:53;;;;;;;6.17;5.57;;;8.10;73.70;;;;;;5092530;28;20507;-74
2020/12/12 03:27:20;;;;;;;8.70;5.80;;;8.10;73.60;;;;;;5105810;28;20491;-74
2020/12/12 03:29:46;;;;;;;6.93;5.83;;;8.10;73.80;;;;;;5107635;28;20455;-75
2020/12/12 03:32:14;;;;;;;5.67;5.10;;;8.10;73.70;;;;;;5105138;28;20454;-75
2020/12/12 03:34:44;;;;;;;6.17;5.20;;;8.10;73.70;;;;;;5095883;28;20791;-74
2020/12/12 03:37:11;;;;;;;6.50;5.77;;;8.00;73.60;;;;;;5112951;28;20483;-74
2020/12/12 03:39:37;;;;;;;7.17;5.77;;;8.00;73.70;;;;;;5112113;28;20502;-73
2020/12/12 03:42:04;;;;;;;5.57;5.07;;;8.00;73.70;;;;;;5108953;28;20456;-73
2020/12/12 03:44:31;;;;;;;6.90;6.20;;;8.00;73.60;;;;;;5093427;28;20968;-74
2020/12/12 03:46:57;;;;;;;5.90;5.30;;;8.00;73.80;;;;;;5092755;28;20498;-74
2020/12/12 03:49:25;;;;;;;5.80;5.30;;;8.00;73.70;;;;;;5096588;28;20484;-74
2020/12/12 03:51:51;;;;;;;6.33;5.20;;;8.00;73.90;;;;;;5112385;28;20452;-75
2020/12/12 03:54:17;;;;;;;6.30;5.70;;;8.10;74.10;;;;;;5109287;28;20956;-74
2020/12/12 03:56:44;;;;;;;6.83;5.97;;;8.10;73.90;;;;;;5111226;28;20513;-75
2020/12/12 03:59:10;;;;;;;5.83;5.33;;;8.10;73.60;;;;;;5094343;28;20446;-75
2020/12/12 04:01:37;;;;;;;7.87;5.40;;;8.10;73.40;;;;;;5101247;28;20459;-75
2020/12/12 04:04:04;;;;;;;6.43;5.03;;;8.20;73.30;;;;;;5101304;28;20453;-75
2020/12/12 04:06:32;;;;;;;5.97;5.43;;;8.20;73.20;;;;;;5105678;28;20981;-76
2020/12/12 04:08:59;;;;;;;6.20;5.60;;;8.20;73.20;;;;;;5109584;28;20457;-76
2020/12/12 04:11:26;;;;;;;7.87;5.90;;;8.20;73.20;;;;;;5096148;28;20457;-75
2020/12/12 04:13:52;;;;;;;6.43;5.83;;;8.20;73.10;;;;;;5100206;28;20449;-75
2020/12/12 04:16:19;;;;;;;6.93;6.27;;;8.20;73.10;;;;;;5104830;28;21005;-75
2020/12/12 04:18:45;;;;;;;6.33;5.73;;;8.30;73.20;;;;;;5096157;28;20456;-75
2020/12/12 04:21:12;;;;;;;6.00;5.53;;;8.30;73.20;;;;;;5111359;28;20452;-75
2020/12/12 04:23:43;;;;;;;6.70;6.10;;;8.30;73.10;;;;;;5103640;28;20548;-74
2020/12/12 04:26:11;;;;;;;6.87;6.27;;;8.30;73.10;;;;;;5100502;28;20485;-75
2020/12/12 04:28:39;;;;;;;6.13;5.53;;;8.30;73.10;;;;;;5101513;28;20505;-74
2020/12/12 04:31:05;;;;;;;6.90;6.30;;;8.30;73.10;;;;;;5115837;28;20538;-74
2020/12/12 04:33:32;;;;;;;6.27;5.67;;;8.30;73.00;;;;;;5107234;28;20481;-74
2020/12/12 04:35:59;;;;;;;6.70;5.40;;;8.30;73.00;;;;;;5100815;28;20472;-75
2020/12/12 04:38:27;;;;;;;7.03;6.33;;;8.30;73.00;;;;;;5095592;28;20815;-75
2020/12/12 04:40:54;;;;;;;7.47;6.30;;;8.30;73.10;;;;;;5106051;28;20543;-76
2020/12/12 04:43:21;;;;;;;5.87;5.37;;;8.30;73.00;;;;;;5107873;28;20454;-76
2020/12/12 04:45:49;;;;;;;8.00;6.07;;;8.30;72.90;;;;;;5098781;28;20555;-77
2020/12/12 04:48:17;;;;;;;6.00;5.40;;;8.30;72.90;;;;;;5106599;28;20447;-76
2020/12/12 04:50:44;;;;;;;5.97;5.40;;;8.30;72.80;;;;;;5101398;28;20440;-75
2020/12/12 04:53:15;;;;;;;6.00;5.40;;;8.30;72.90;;;;;;5095525;28;20452;-75
2020/12/12 04:55:45;;;;;;;7.57;6.87;;;8.30;72.90;;;;;;5095375;28;20440;-76
2020/12/12 04:58:15;;;;;;;7.70;6.80;;;8.30;72.90;;;;;;5095251;28;20488;-76
2020/12/12 05:00:45;;;;;;;8.07;6.60;;;8.30;73.00;;;;;;5095301;28;20496;-75
2020/12/12 05:03:13;;;;;;;7.80;6.13;;;8.30;73.00;;;;;;5095256;28;20869;-76
2020/12/12 05:05:40;;;;;;;7.10;6.50;;;8.30;73.10;;;;;;5096213;28;20496;-76
2020/12/12 05:08:08;;;;;;;7.43;6.47;;;8.30;73.20;;;;;;5096250;28;20442;-74
2020/12/12 05:10:39;;;;;;;8.27;6.97;;;8.30;73.20;;;;;;5095057;28;20468;-76
2020/12/12 05:13:18;;;;;;;7.47;6.80;;;8.30;73.40;;;;;;5099142;28;20547;-73
2020/12/12 05:15:45;;;;;;;6.53;5.93;;;8.30;73.40;;;;;;5113693;28;20469;-76
2020/12/12 05:18:12;;;;;;;7.40;6.80;;;8.20;73.30;;;;;;5106483;28;20824;-76
2020/12/12 05:20:39;;;;;;;9.30;7.00;;;8.30;73.50;;;;;;5111480;28;20448;-74
2020/12/12 05:23:13;;;;;;;8.23;6.07;;;8.20;73.30;;;;;;5104175;28;20526;-76
2020/12/12 05:25:40;;;;;;;5.83;5.23;;;8.30;73.60;;;;;;5094754;28;21017;-75
2020/12/12 05:28:09;;;;;;;6.73;6.10;;;8.20;73.50;;;;;;5095612;28;20454;-75
2020/12/12 05:30:37;;;;;;;6.80;6.20;;;8.20;73.50;;;;;;5109191;28;20546;-77
2020/12/12 05:33:04;;;;;;;6.93;5.37;;;8.20;73.50;;;;;;5109270;28;20823;-76
2020/12/12 05:35:31;;;;;;;5.27;4.77;;;8.20;73.60;;;;;;5108481;28;20453;-76
2020/12/12 05:37:59;;;;;;;6.03;5.33;;;8.20;73.70;;;;;;5094457;28;20445;-76
2020/12/12 05:40:26;;;;;;;6.70;6.00;;;8.20;73.90;;;;;;5094678;28;20453;-77
2020/12/12 05:42:52;;;;;;;5.87;5.37;;;8.20;73.80;;;;;;5104941;28;20443;-76
2020/12/12 05:45:19;;;;;;;6.03;5.43;;;8.20;73.80;;;;;;5094168;28;20498;-77
2020/12/12 05:47:51;;;;;;;6.93;6.23;;;8.20;73.90;;;;;;5103353;28;20444;-76
2020/12/12 05:50:18;;;;;;;6.83;6.20;;;8.20;74.00;;;;;;5099779;28;20442;-77
2020/12/12 05:52:46;;;;;;;8.30;5.37;;;8.20;74.10;;;;;;5114692;28;20456;-77
2020/12/12 05:55:12;;;;;;;6.30;5.70;;;8.20;74.10;;;;;;5108739;28;20523;-77
2020/12/12 05:57:40;;;;;;;5.40;4.90;;;8.20;74.10;;;;;;5103851;28;20457;-76
2020/12/12 06:00:07;;;;;;;7.30;6.50;;;8.20;74.20;;;;;;5096597;28;20464;-76
2020/12/12 06:02:36;;;;;;;7.03;6.30;;;8.30;74.30;;;;;;5103285;28;20448;-76
2020/12/12 06:05:06;;;;;;;5.93;5.07;;;8.30;74.30;;;;;;5095144;28;20517;-76
2020/12/12 06:07:34;;;;;;;5.77;5.17;;;8.30;74.30;;;;;;5096692;28;20454;-76
2020/12/12 06:10:04;;;;;;;5.53;5.03;;;8.30;74.30;;;;;;5094272;28;20456;-76
2020/12/12 06:12:31;;;;;;;5.93;5.40;;;8.30;74.40;;;;;;5100347;28;20448;-75
2020/12/12 06:14:59;;;;;;;6.23;5.63;;;8.30;74.50;;;;;;5097268;28;20453;-77
2020/12/12 06:17:52;;;;;;;8.30;5.90;;;8.30;74.50;;;;;;5103764;28;20464;-77
2020/12/12 06:20:21;;;;;;;5.23;4.70;;;8.40;74.60;;;;;;5104170;28;20444;-76
2020/12/12 06:22:47;;;;;;;6.30;5.70;;;8.30;74.60;;;;;;5106742;28;20804;-77
2020/12/12 06:25:15;;;;;;;5.37;4.87;;;8.40;74.80;;;;;;5113942;28;20485;-77
2020/12/12 06:27:47;;;;;;;6.33;5.73;;;8.40;74.80;;;;;;5093130;28;20457;-76
2020/12/12 06:30:14;;;;;;;7.40;5.80;;;8.40;75.00;;;;;;5093502;28;20820;-76
2020/12/12 06:32:41;;;;;;;7.53;5.50;;;8.40;75.00;;;;;;5093379;28;20441;-75
2020/12/12 06:35:08;;;;;;;7.77;6.50;;;8.30;75.00;;;;;;5091840;28;20451;-75
2020/12/12 06:37:38;;;;;;;5.30;4.73;;;8.30;75.10;;;;;;5094360;28;20448;-76
2020/12/12 06:40:07;;;;;;;5.33;4.83;;;8.30;75.10;;;;;;5108672;28;20973;-77
2020/12/12 06:42:35;;;;;;;5.63;5.03;;;8.30;75.20;;;;;;5103949;28;20445;-77
2020/12/12 06:45:18;;;;;;;7.83;5.60;;;8.30;75.20;;;;;;5100644;28;20476;-77
2020/12/12 06:47:48;;;;;;;5.80;4.70;;;8.40;75.30;;;;;;5077586;28;20453;-78
2020/12/12 06:50:17;;;;;;;6.70;5.50;;;8.40;75.30;;;;;;5100389;28;20808;-77
2020/12/12 06:52:44;;;;;;;7.87;5.30;;;8.40;75.30;;;;;;5098055;28;20500;-78
2020/12/12 06:55:14;;;;;;;5.50;5.00;;;8.40;75.30;;;;;;5102171;28;20516;-77
2020/12/12 06:57:42;;;;;;;7.10;5.83;;;8.40;75.30;;;;;;5098445;28;20460;-78
2020/12/12 07:00:18;;;;;;;6.40;5.70;;;8.40;75.30;;;;;;5099762;28;20506;-78
2020/12/12 07:02:55;;;;;;;5.73;5.17;;;8.40;75.20;;;;;;5100779;28;20457;-77
2020/12/12 07:05:24;;;;;;;6.83;5.63;;;8.40;75.20;;;;;;5100317;28;20486;-77
2020/12/12 07:07:51;;;;;;;5.97;5.10;;;8.40;75.20;;;;;;5092922;28;20511;-77
2020/12/12 07:10:18;;;;;;;5.33;4.90;;;8.40;75.10;;;;;;5092704;28;20813;-77
2020/12/12 07:12:45;;;;;;;5.17;4.67;;;8.50;75.20;;;;;;5091365;28;20452;-78
2020/12/12 07:15:12;;;;;;;5.20;4.73;;;8.50;75.10;;;;;;5095481;28;20454;-77
2020/12/12 07:17:41;;;;;;;4.90;4.50;;;8.40;75.00;;;;;;5094238;28;20853;-77
2020/12/12 07:20:08;;;;;;;6.57;5.97;;;8.50;75.20;;;;;;5101612;28;20501;-78
2020/12/12 07:22:35;;;;;;;5.33;4.90;;;8.50;75.10;;;;;;5095896;28;20487;-76
2020/12/12 07:25:05;;;;;;;4.60;4.03;;;8.50;74.90;;;;;;5101321;28;20828;-78
2020/12/12 07:27:33;;;;;;;4.27;3.87;;;8.50;74.80;;;;;;5108284;28;20451;-77
2020/12/12 07:29:59;;;;;;;5.27;4.53;;;8.50;74.70;;;;;;5106744;28;20460;-78
2020/12/12 07:32:26;;;;;;;5.70;5.10;;;8.50;74.60;;;;;;5107882;28;20509;-78
2020/12/12 07:34:58;;;;;;;5.57;5.07;;;8.50;74.50;;;;;;5104889;28;20824;-78
2020/12/12 07:37:25;;;;;;;6.73;4.73;;;8.50;74.60;;;;;;5099110;28;21376;-77
2020/12/12 07:39:53;;;;;;;4.77;4.37;;;8.50;74.40;;;;;;5095298;28;20828;-75
2020/12/12 07:42:23;;;;;;;5.50;4.63;;;8.60;74.60;;;;;;5100980;28;20460;-75
2020/12/12 07:44:55;;;;;;;5.03;4.63;;;8.60;74.50;;;;;;5114471;28;20539;-76
2020/12/12 07:47:21;;;;;;;6.03;5.40;;;8.60;74.40;;;;;;5099840;28;20497;-74
2020/12/12 07:49:48;;;;;;;5.37;4.93;;;8.60;74.40;;;;;;5101117;28;20463;-76
2020/12/12 07:52:14;;;;;;;5.70;4.80;;;8.60;74.30;;;;;;5098659;28;20454;-75
2020/12/12 07:54:44;;;;;;;5.90;4.77;;;8.60;74.10;;;;;;5110699;28;20456;-78
2020/12/12 07:57:12;;;;;;;5.60;4.67;;;8.60;74.00;;;;;;5108368;28;20477;-78
2020/12/12 07:59:40;;;;;;;4.57;4.17;;;8.60;74.10;;;;;;5100768;28;20443;-77
2020/12/12 08:02:08;;;;;;;4.40;4.00;;;8.60;74.00;;;;;;5096220;28;20460;-76
2020/12/12 08:04:35;;;;;;;5.27;4.73;;;8.60;73.90;;;;;;5096311;28;20977;-76
2020/12/12 08:07:12;;;;;;;6.20;5.10;;;8.60;73.70;;;;;;5096248;28;20900;-76
2020/12/12 08:09:47;;;;;;;4.77;4.37;;;8.60;73.70;;;;;;5096477;28;20872;-76
2020/12/12 08:12:34;;;;;;;4.87;4.47;;;8.60;73.80;;;;;;5095994;28;20447;-77
2020/12/12 08:15:15;;;;;;;4.97;4.47;;;8.60;73.80;;;;;;5095941;28;20441;-76
2020/12/12 08:17:41;;;;;;;5.00;4.40;;;8.70;73.70;;;;;;5096047;28;20491;-76
2020/12/12 08:20:14;;;;;;;4.50;4.10;;;8.60;73.50;;;;;;5094271;28;20457;-76
2020/12/12 08:22:41;;;;;;;5.40;4.90;;;8.70;73.60;;;;;;5095811;28;20472;-76
2020/12/12 08:25:08;;;;;;;5.47;4.97;;;8.70;73.70;;;;;;5095881;28;20453;-76
2020/12/12 08:27:35;;;;;;;6.03;5.43;;;8.70;73.80;;;;;;5095621;28;20445;-76
2020/12/12 08:30:07;;;;;;;5.90;5.30;;;8.70;74.00;;;;;;5095868;28;20480;-76
2020/12/12 08:32:36;;;;;;;4.80;4.27;;;8.70;74.10;;;;;;5095819;28;20449;-76
2020/12/12 08:35:17;;;;;;;5.60;5.00;;;8.70;74.10;;;;;;5096017;28;20454;-76
2020/12/12 08:37:58;;;;;;;4.93;4.53;;;8.70;74.30;;;;;;5095736;28;20456;-76
2020/12/12 08:40:26;;;;;;;6.80;5.57;;;8.70;74.40;;;;;;5095497;28;20456;-76
2020/12/12 08:42:59;;;;;;;4.70;4.30;;;8.70;74.40;;;;;;5095424;28;20443;-76
2020/12/12 08:45:28;;;;;;;5.40;4.87;;;8.80;74.40;;;;;;5095520;28;20480;-76
2020/12/12 08:48:02;;;;;;;7.00;4.93;;;8.80;74.50;;;;;;5096491;28;20481;-76
2020/12/12 08:50:42;;;;;;;5.37;4.87;;;8.80;74.40;;;;;;5115879;28;20440;-76
2020/12/12 08:53:29;;;;;;;6.47;4.37;;;8.80;74.20;;;;;;5115324;28;20487;-76
2020/12/12 08:56:07;;;;;;;4.07;3.77;;;8.80;74.30;;;;;;5115541;28;20451;-76
2020/12/12 08:58:45;;;;;;;4.70;4.13;;;8.80;74.30;;;;;;5115477;28;20806;-76
2020/12/12 09:01:18;;;;;;;4.40;4.00;;;8.80;74.20;;;;;;5115538;28;20444;-76
2020/12/12 09:03:56;;;;;;;4.87;4.47;;;8.80;74.20;;;;;;5115574;28;20482;-76
2020/12/12 09:06:23;;;;;;;5.70;4.40;;;8.80;74.10;;;;;;5115131;28;20503;-76
2020/12/12 09:09:07;;;;;;;4.23;3.90;;;8.80;74.20;;;;;;5115327;28;20445;-76
2020/12/12 09:11:34;;;;;;;4.10;3.70;;;8.80;74.40;;;;;;5115467;28;21028;-76
2020/12/12 09:14:00;;;;;;;4.47;4.07;;;8.80;74.30;;;;;;5113497;28;20449;-76
2020/12/12 09:16:28;;;;;;;4.70;4.27;;;8.80;74.10;;;;;;5115123;28;20441;-75
2020/12/12 09:18:55;;;;;;;4.23;3.93;;;8.80;74.10;;;;;;5114995;28;20446;-75
2020/12/12 09:21:22;;;;;;;4.90;4.10;;;8.90;74.20;;;;;;5115052;28;20484;-75
2020/12/12 09:23:48;;;;;;;4.97;4.47;;;8.90;74.10;;;;;;5115066;28;20473;-75
2020/12/12 09:26:15;;;;;;;4.40;4.10;;;9.00;73.90;;;;;;5114907;28;20490;-75
2020/12/12 09:28:44;;;;;;;4.27;3.97;;;9.00;73.80;;;;;;5114852;28;20445;-75
2020/12/12 09:31:10;;;;;;;6.13;4.10;;;9.00;73.90;;;;;;5114676;28;20448;-75
2020/12/12 09:33:38;;;;;;;5.73;4.27;;;9.10;73.90;;;;;;5114635;28;20453;-76
2020/12/12 09:36:04;;;;;;;6.60;4.10;;;9.10;73.70;;;;;;5114950;28;20448;-75
2020/12/12 09:38:31;;;;;;;3.87;3.57;;;9.20;73.70;;;;;;5113547;28;20452;-74
2020/12/12 09:40:58;;;;;;;5.13;4.47;;;9.20;73.50;;;;;;5093780;28;20515;-75
2020/12/12 09:43:25;;;;;;;4.57;4.00;;;9.30;73.40;;;;;;5094124;28;20449;-75
2020/12/12 09:45:52;;;;;;;5.40;3.63;;;9.30;73.20;;;;;;5094083;28;20501;-74
2020/12/12 09:48:18;;;;;;;5.77;4.70;;;9.30;72.90;;;;;;5099983;28;20949;-75
2020/12/12 09:50:46;;;;;;;4.80;3.77;;;9.30;72.70;;;;;;5114290;28;20453;-75
2020/12/12 09:53:13;;;;;;;4.70;3.87;;;9.30;72.90;;;;;;5114414;28;20438;-75
2020/12/12 09:55:41;;;;;;;4.30;3.90;;;9.30;72.90;;;;;;5114471;28;20476;-75
2020/12/12 09:58:08;;;;;;;3.83;3.43;;;9.30;73.00;;;;;;5101382;28;20448;-76
2020/12/12 10:00:36;;;;;;;4.00;3.60;;;9.30;72.90;;;;;;5108306;28;20877;-75
2020/12/12 10:03:04;;;;;;;3.83;3.53;;;9.30;73.40;;;;;;5099433;28;20451;-75
2020/12/12 10:05:30;;;;;;;6.37;4.00;;;9.30;72.60;;;;;;5099703;28;20492;-75
2020/12/12 10:07:58;;;;;;;3.90;3.50;;;9.40;72.60;;;;;;5113490;28;20449;-76
2020/12/12 10:10:26;;;;;;;5.30;4.80;;;9.40;72.80;;;;;;5106931;28;20458;-76
2020/12/12 10:12:53;;;;;;;4.57;4.17;;;9.50;72.70;;;;;;5095498;28;20950;-78
2020/12/12 10:15:24;;;;;;;4.43;3.40;;;9.50;72.60;;;;;;5093374;28;20450;-77
2020/12/12 10:17:51;;;;;;;4.50;3.20;;;9.60;72.50;;;;;;5095294;28;20455;-77
2020/12/12 10:20:19;;;;;;;3.60;3.30;;;9.60;72.30;;;;;;5100533;28;20474;-77
2020/12/12 10:22:46;;;;;;;3.80;3.50;;;9.70;72.00;;;;;;5105641;28;20472;-77
2020/12/12 10:25:13;;;;;;;3.83;3.30;;;9.70;72.00;;;;;;5113550;28;20445;-77
2020/12/12 10:27:40;;;;;;;3.57;3.27;;;9.80;71.80;;;;;;5109274;28;20454;-77
2020/12/12 10:30:08;;;;;;;3.73;3.43;;;9.90;71.80;;;;;;5105983;28;20453;-77
2020/12/12 10:32:36;;;;;;;4.73;3.30;;;9.90;71.80;;;;;;5091729;28;20452;-77
2020/12/12 10:35:02;;;;;;;4.60;3.47;;;10.00;70.70;;;;;;5104142;28;20457;-76
2020/12/12 10:37:29;;;;;;;4.93;2.93;;;10.00;70.30;;;;;;5109297;28;20488;-77
2020/12/12 10:40:01;;;;;;;3.90;3.60;;;10.10;70.30;;;;;;5099317;28;20469;-77
2020/12/12 10:42:29;;;;;;;3.77;2.87;;;10.10;70.00;;;;;;5113179;28;20852;-78
2020/12/12 10:44:55;;;;;;;4.50;3.10;;;10.20;70.10;;;;;;5107830;28;20940;-78
2020/12/12 10:47:22;;;;;;;5.27;3.03;;;10.20;70.00;;;;;;5097613;28;20485;-78
2020/12/12 10:49:49;;;;;;;2.93;2.73;;;10.20;69.90;;;;;;5099479;28;20507;-80
2020/12/12 10:52:15;;;;;;;2.90;2.67;;;10.30;70.00;;;;;;5093044;28;20446;-78
2020/12/12 10:54:45;;;;;;;3.50;3.20;;;10.30;69.70;;;;;;5109007;28;20471;-77
2020/12/12 10:57:11;;;;;;;4.10;3.70;;;10.30;69.90;;;;;;5112508;28;20452;-77
2020/12/12 10:59:42;;;;;;;3.17;2.60;;;10.40;70.10;;;;;;5102072;28;20864;-77
2020/12/12 11:02:10;;;;;;;3.23;2.93;;;10.40;69.80;;;;;;5107055;28;20988;-79
2020/12/12 11:04:36;;;;;;;2.63;2.43;;;10.40;69.50;;;;;;5111358;28;20504;-77
2020/12/12 11:07:03;;;;;;;2.40;2.27;;;10.40;69.50;;;;;;5112349;28;20486;-77
2020/12/12 11:09:30;;;;;;;3.40;3.10;;;10.40;69.20;;;;;;5104483;28;20453;-78
2020/12/12 11:11:56;;;;;;;2.80;2.60;;;10.40;69.00;;;;;;5101974;28;20472;-79
2020/12/12 11:14:25;;;;;;;2.87;2.50;;;10.40;69.10;;;;;;5096051;28;20465;-78
2020/12/12 11:16:53;;;;;;;3.70;2.83;;;10.40;69.10;;;;;;5104407;28;20459;-77
2020/12/12 11:19:19;;;;;;;5.93;2.97;;;10.40;69.20;;;;;;5098391;28;20894;-79
2020/12/12 11:21:46;;;;;;;2.97;2.77;;;10.40;69.40;;;;;;5101185;28;20512;-77
2020/12/12 11:24:12;;;;;;;2.30;2.17;;;10.40;69.20;;;;;;5093038;28;20499;-81
2020/12/12 11:26:40;;;;;;;2.80;2.57;;;10.40;69.60;;;;;;5095073;28;20474;-80
2020/12/12 11:29:06;;;;;;;2.87;2.67;;;10.30;69.50;;;;;;5112784;28;20452;-78
2020/12/12 11:31:34;;;;;;;2.60;2.40;;;10.40;70.00;;;;;;5110086;28;20450;-78
2020/12/12 11:34:06;;;;;;;2.87;2.67;;;10.40;69.70;;;;;;5093793;28;20455;-79
2020/12/12 11:39:19;;;;;;;4.67;2.33;;;10.50;69.90;;;;;;5097773;28;20505;-77
2020/12/12 11:44:51;;;;;;;3.73;2.93;;;10.70;69.80;;;;;;5098067;28;20446;-79
2020/12/12 11:47:22;;;;;;;3.77;3.20;;;10.70;69.80;;;;;;5092390;28;20499;-77
2020/12/12 11:49:50;;;;;;;3.47;3.17;;;10.70;69.90;;;;;;5108592;28;20472;-77
2020/12/12 11:52:16;;;;;;;2.63;2.37;;;10.70;69.90;;;;;;5103985;28;20842;-80
2020/12/12 11:54:45;;;;;;;4.60;3.10;;;10.80;70.00;;;;;;5102045;28;20461;-78
2020/12/12 11:57:12;;;;;;;3.57;3.10;;;10.80;70.00;;;;;;5092021;28;20456;-81
2020/12/12 11:59:39;;;;;;;5.70;2.40;;;10.80;69.90;;;;;;5094958;28;20457;-78
2020/12/12 12:02:08;;;;;;;2.97;2.77;;;10.80;70.00;;;;;;5093056;28;20440;-79
2020/12/12 12:04:38;;;;;;;2.60;2.40;;;10.90;70.10;;;;;;5094112;28;21299;-78
2020/12/12 12:07:11;;;;;;;3.27;2.97;;;10.90;70.20;;;;;;5098805;28;20490;-79
2020/12/12 12:09:39;;;;;;;4.53;3.10;;;10.90;70.00;;;;;;5092443;28;20496;-78
2020/12/12 12:12:06;;;;;;;3.33;3.07;;;10.90;69.90;;;;;;5093894;28;20823;-79
2020/12/12 12:14:33;;;;;;;2.53;2.30;;;11.00;70.00;;;;;;5104917;28;20451;-80
2020/12/12 12:16:59;;;;;;;3.77;3.20;;;10.90;69.70;;;;;;5097329;28;20967;-80
2020/12/12 12:19:26;;;;;;;5.03;3.30;;;10.90;69.80;;;;;;5091033;28;20463;-78
2020/12/12 12:21:53;;;;;;;3.37;3.10;;;10.90;69.90;;;;;;5095451;28;20451;-79
2020/12/12 12:24:24;;;;;;;3.37;2.80;;;10.80;70.60;;;;;;5098001;28;20485;-78
2020/12/12 12:26:51;;;;;;;2.53;2.33;;;10.80;70.10;;;;;;5101242;28;20488;-77
2020/12/12 12:29:19;;;;;;;3.50;3.00;;;10.70;70.20;;;;;;5114813;28;20439;-77
2020/12/12 12:31:48;;;;;;;3.90;3.53;;;10.80;70.50;;;;;;5099599;28;20453;-77
2020/12/12 12:34:14;;;;;;;3.23;2.97;;;10.80;70.60;;;;;;5095759;28;20479;-76
2020/12/12 12:36:41;;;;;;;2.80;2.60;;;10.80;70.70;;;;;;5109282;28;20963;-78
2020/12/12 12:39:09;;;;;;;3.53;3.23;;;10.80;71.20;;;;;;5103850;28;20445;-77
2020/12/12 12:41:38;;;;;;;4.67;3.03;;;10.80;70.60;;;;;;5109535;28;20921;-78
2020/12/12 12:44:05;;;;;;;4.00;3.50;;;10.80;70.60;;;;;;5106245;28;20799;-77
2020/12/12 12:46:33;;;;;;;3.47;3.17;;;10.80;70.60;;;;;;5098761;28;20479;-76
2020/12/12 12:49:01;;;;;;;4.40;4.00;;;10.80;70.50;;;;;;5106048;28;20447;-77
2020/12/12 12:51:28;;;;;;;6.27;3.40;;;10.70;70.60;;;;;;5104553;28;20460;-77
2020/12/12 12:53:54;;;;;;;3.60;3.30;;;10.70;70.80;;;;;;5105659;28;20448;-77
2020/12/12 12:56:25;;;;;;;4.10;3.60;;;10.70;71.00;;;;;;5099136;28;20467;-77
2020/12/12 12:58:52;;;;;;;4.03;3.70;;;10.70;71.10;;;;;;5111347;28;20460;-76
2020/12/12 13:01:20;;;;;;;4.20;3.80;;;10.70;71.20;;;;;;5109026;28;20441;-76
2020/12/12 13:03:47;;;;;;;4.07;3.70;;;10.70;71.30;;;;;;5108308;28;20453;-76
2020/12/12 13:06:24;;;;;;;4.20;3.80;;;10.70;71.20;;;;;;5101130;28;20479;-77